ANA407 RJTT-RJSK
Flight info
| Callsign | ANA407 |
|---|---|
| Flight time | 0h 48m |
| Altitude | 33000 |
| Route | BRUCE AGRIS Y11 YTE Y32 CHOKA |
| Aircraft | A320/M-SDE3FGHIRWY/LB1 |
Departure
| Time | 2026-04-22 07:13 |
|---|---|
| Airport | Tokyo Haneda International Airport (RJTT) |
Arrival
| Time | 2026-04-22 08:02 |
|---|---|
| Airport | Akita Airport (RJSK) |
| Time | Latitude | Longitude | Altitude | Speed | Heading |
|---|---|---|---|---|---|
| 2026-04-22 06:54 | 35.55505 | 139.78931 | 27 ft | 0 kts | 330° |
| 2026-04-22 07:04 | 35.55491 | 139.78941 | 27 ft | 2 kts | 330° |
| 2026-04-22 07:04 | 35.55476 | 139.78951 | 26 ft | 2 kts | 330° |
| 2026-04-22 07:04 | 35.55462 | 139.78961 | 28 ft | 2 kts | 331° |
| 2026-04-22 07:04 | 35.55447 | 139.78971 | 26 ft | 2 kts | 345° |
| 2026-04-22 07:05 | 35.55431 | 139.78974 | 27 ft | 2 kts | 15° |
| 2026-04-22 07:05 | 35.55416 | 139.78966 | 27 ft | 2 kts | 44° |
| 2026-04-22 07:05 | 35.55410 | 139.78958 | 27 ft | 1 kts | 59° |
| 2026-04-22 07:05 | 35.55409 | 139.78958 | 27 ft | 0 kts | 60° |
| 2026-04-22 07:08 | 35.55431 | 139.79003 | 27 ft | 10 kts | 58° |
| 2026-04-22 07:08 | 35.55484 | 139.79044 | 27 ft | 9 kts | 0° |
| 2026-04-22 07:08 | 35.55538 | 139.79017 | 30 ft | 8 kts | 332° |
| 2026-04-22 07:08 | 35.55582 | 139.78989 | 29 ft | 7 kts | 332° |
| 2026-04-22 07:09 | 35.55618 | 139.78964 | 27 ft | 5 kts | 331° |
| 2026-04-22 07:09 | 35.55694 | 139.78908 | 25 ft | 24 kts | 329° |
| 2026-04-22 07:09 | 35.55840 | 139.78805 | 23 ft | 24 kts | 330° |
| 2026-04-22 07:09 | 35.55973 | 139.78710 | 25 ft | 21 kts | 331° |
| 2026-04-22 07:10 | 35.56099 | 139.78623 | 23 ft | 20 kts | 330° |
| 2026-04-22 07:10 | 35.56211 | 139.78541 | 24 ft | 18 kts | 329° |
| 2026-04-22 07:10 | 35.56283 | 139.78488 | 25 ft | 8 kts | 329° |
| 2026-04-22 07:10 | 35.56335 | 139.78450 | 26 ft | 13 kts | 329° |
| 2026-04-22 07:11 | 35.56422 | 139.78401 | 27 ft | 13 kts | 358° |
| 2026-04-22 07:11 | 35.56482 | 139.78462 | 27 ft | 11 kts | 57° |
| 2026-04-22 07:11 | 35.56517 | 139.78535 | 29 ft | 9 kts | 60° |
| 2026-04-22 07:11 | 35.56544 | 139.78593 | 28 ft | 6 kts | 61° |
| 2026-04-22 07:12 | 35.56555 | 139.78628 | 29 ft | 6 kts | 77° |
| 2026-04-22 07:12 | 35.56517 | 139.78706 | 30 ft | 13 kts | 147° |
| 2026-04-22 07:12 | 35.56484 | 139.78729 | 30 ft | 1 kts | 149° |
| 2026-04-22 07:12 | 35.56481 | 139.78732 | 30 ft | 0 kts | 149° |
| 2026-04-22 07:13 | 35.56284 | 139.78871 | 27 ft | 70 kts | 150° |
| 2026-04-22 07:13 | 35.55676 | 139.79301 | 28 ft | 129 kts | 150° |
| 2026-04-22 07:13 | 35.54802 | 139.79915 | 371 ft | 142 kts | 153° |
| 2026-04-22 07:13 | 35.53996 | 139.80589 | 1121 ft | 143 kts | 142° |
| 2026-04-22 07:14 | 35.53280 | 139.81463 | 1815 ft | 147 kts | 141° |
| 2026-04-22 07:14 | 35.52525 | 139.82388 | 2441 ft | 163 kts | 142° |
| 2026-04-22 07:14 | 35.51672 | 139.83435 | 2854 ft | 184 kts | 141° |
| 2026-04-22 07:14 | 35.50709 | 139.84617 | 3139 ft | 207 kts | 141° |
| 2026-04-22 07:15 | 35.49627 | 139.85940 | 3456 ft | 232 kts | 140° |
| 2026-04-22 07:15 | 35.48420 | 139.87414 | 3913 ft | 254 kts | 140° |
| 2026-04-22 07:15 | 35.47187 | 139.89034 | 4672 ft | 268 kts | 130° |
| 2026-04-22 07:15 | 35.46460 | 139.91166 | 5426 ft | 285 kts | 102° |
| 2026-04-22 07:16 | 35.46568 | 139.93621 | 6230 ft | 295 kts | 75° |
| 2026-04-22 07:16 | 35.47441 | 139.95889 | 7019 ft | 298 kts | 50° |
| 2026-04-22 07:16 | 35.48958 | 139.97585 | 7877 ft | 295 kts | 27° |
| 2026-04-22 07:16 | 35.50845 | 139.98502 | 8751 ft | 292 kts | 7° |
| 2026-04-22 07:17 | 35.52858 | 139.98642 | 9626 ft | 288 kts | 350° |
| 2026-04-22 07:17 | 35.54812 | 139.98116 | 10325 ft | 294 kts | 340° |
| 2026-04-22 07:17 | 35.56864 | 139.97399 | 10583 ft | 318 kts | 341° |
| 2026-04-22 07:17 | 35.59069 | 139.96632 | 10791 ft | 342 kts | 342° |
| 2026-04-22 07:18 | 35.61487 | 139.96145 | 11150 ft | 361 kts | 354° |
| 2026-04-22 07:18 | 35.64031 | 139.96220 | 11774 ft | 369 kts | 0° |
| 2026-04-22 07:18 | 35.66611 | 139.96404 | 12439 ft | 374 kts | 359° |
| 2026-04-22 07:18 | 35.69233 | 139.96578 | 13124 ft | 379 kts | 359° |
| 2026-04-22 07:19 | 35.71885 | 139.96669 | 13812 ft | 383 kts | 353° |
| 2026-04-22 07:19 | 35.74524 | 139.96238 | 14380 ft | 382 kts | 342° |
| 2026-04-22 07:19 | 35.77047 | 139.95254 | 14854 ft | 381 kts | 333° |
| 2026-04-22 07:19 | 35.79522 | 139.94089 | 14974 ft | 381 kts | 333° |
| 2026-04-22 07:20 | 35.81996 | 139.92922 | 14991 ft | 381 kts | 333° |
| 2026-04-22 07:20 | 35.84478 | 139.91751 | 14991 ft | 380 kts | 333° |
| 2026-04-22 07:20 | 35.86946 | 139.90586 | 14994 ft | 380 kts | 333° |
| 2026-04-22 07:20 | 35.89421 | 139.89419 | 14996 ft | 380 kts | 333° |
| 2026-04-22 07:21 | 35.91890 | 139.88258 | 15028 ft | 382 kts | 333° |
| 2026-04-22 07:21 | 35.94389 | 139.87086 | 15640 ft | 386 kts | 334° |
| 2026-04-22 07:21 | 35.97027 | 139.86265 | 16282 ft | 398 kts | 345° |
| 2026-04-22 07:21 | 35.99842 | 139.86136 | 16877 ft | 413 kts | 357° |
| 2026-04-22 07:22 | 36.02720 | 139.86795 | 17444 ft | 430 kts | 11° |
| 2026-04-22 07:22 | 36.05565 | 139.88087 | 17982 ft | 439 kts | 14° |
| 2026-04-22 07:22 | 36.08443 | 139.89446 | 18472 ft | 445 kts | 14° |
| 2026-04-22 07:22 | 36.11353 | 139.90817 | 18977 ft | 449 kts | 14° |
| 2026-04-22 07:23 | 36.14248 | 139.92179 | 19499 ft | 452 kts | 14° |
| 2026-04-22 07:23 | 36.17205 | 139.93539 | 20012 ft | 453 kts | 11° |
| 2026-04-22 07:23 | 36.20236 | 139.94466 | 20513 ft | 446 kts | 1° |
| 2026-04-22 07:23 | 36.23297 | 139.94789 | 21008 ft | 438 kts | 351° |
| 2026-04-22 07:24 | 36.26340 | 139.94705 | 21507 ft | 438 kts | 349° |
| 2026-04-22 07:24 | 36.29403 | 139.94608 | 22002 ft | 440 kts | 349° |
| 2026-04-22 07:24 | 36.32473 | 139.94516 | 22472 ft | 442 kts | 349° |
| 2026-04-22 07:24 | 36.35560 | 139.94425 | 22941 ft | 445 kts | 349° |
| 2026-04-22 07:25 | 36.38658 | 139.94335 | 23393 ft | 447 kts | 349° |
| 2026-04-22 07:25 | 36.41771 | 139.94247 | 23788 ft | 449 kts | 349° |
| 2026-04-22 07:25 | 36.44909 | 139.94230 | 24158 ft | 453 kts | 351° |
| 2026-04-22 07:25 | 36.48073 | 139.94325 | 24522 ft | 456 kts | 352° |
| 2026-04-22 07:26 | 36.51255 | 139.94495 | 24874 ft | 459 kts | 353° |
| 2026-04-22 07:26 | 36.54452 | 139.94694 | 25219 ft | 461 kts | 353° |
| 2026-04-22 07:26 | 36.57659 | 139.94890 | 25562 ft | 462 kts | 353° |
| 2026-04-22 07:26 | 36.60870 | 139.95067 | 25892 ft | 463 kts | 352° |
| 2026-04-22 07:27 | 36.64098 | 139.95222 | 26210 ft | 465 kts | 352° |
| 2026-04-22 07:27 | 36.67335 | 139.95360 | 26516 ft | 466 kts | 352° |
| 2026-04-22 07:27 | 36.70580 | 139.95486 | 26811 ft | 468 kts | 351° |
| 2026-04-22 07:27 | 36.73842 | 139.95610 | 27108 ft | 469 kts | 351° |
| 2026-04-22 07:28 | 36.80395 | 139.95874 | 27656 ft | 474 kts | 352° |
| 2026-04-22 07:28 | 36.83695 | 139.96019 | 27905 ft | 476 kts | 352° |
| 2026-04-22 07:28 | 36.87018 | 139.96218 | 28146 ft | 483 kts | 355° |
| 2026-04-22 07:29 | 36.90332 | 139.96905 | 28366 ft | 494 kts | 1° |
| 2026-04-22 07:29 | 36.93706 | 139.97778 | 28645 ft | 495 kts | 1° |
| 2026-04-22 07:29 | 36.97117 | 139.98660 | 28972 ft | 494 kts | 1° |
| 2026-04-22 07:29 | 37.00431 | 139.99408 | 29309 ft | 486 kts | 356° |
| 2026-04-22 07:30 | 37.03774 | 139.99925 | 29831 ft | 480 kts | 355° |
| 2026-04-22 07:30 | 37.07080 | 140.00395 | 30266 ft | 477 kts | 355° |
| 2026-04-22 07:30 | 37.10380 | 140.00834 | 30546 ft | 477 kts | 354° |
| 2026-04-22 07:30 | 37.13682 | 140.01260 | 30774 ft | 477 kts | 354° |
| 2026-04-22 07:31 | 37.16989 | 140.01683 | 31023 ft | 478 kts | 354° |
| 2026-04-22 07:31 | 37.20294 | 140.02112 | 31297 ft | 478 kts | 354° |
| 2026-04-22 07:31 | 37.23599 | 140.02555 | 31595 ft | 478 kts | 354° |
| 2026-04-22 07:31 | 37.26897 | 140.03008 | 31942 ft | 476 kts | 354° |
| 2026-04-22 07:32 | 37.30190 | 140.03466 | 32312 ft | 475 kts | 354° |
| 2026-04-22 07:32 | 37.33465 | 140.03926 | 32660 ft | 473 kts | 354° |
| 2026-04-22 07:32 | 37.36733 | 140.04383 | 32934 ft | 472 kts | 354° |
| 2026-04-22 07:32 | 37.39991 | 140.04837 | 32996 ft | 467 kts | 354° |
| 2026-04-22 07:33 | 37.46363 | 140.05716 | 32989 ft | 462 kts | 353° |
| 2026-04-22 07:33 | 37.52749 | 140.06578 | 32994 ft | 461 kts | 353° |
| 2026-04-22 07:34 | 37.59132 | 140.07455 | 32990 ft | 461 kts | 353° |
| 2026-04-22 07:34 | 37.65499 | 140.08347 | 32985 ft | 460 kts | 353° |
| 2026-04-22 07:35 | 37.71863 | 140.09232 | 32992 ft | 460 kts | 353° |
| 2026-04-22 07:35 | 37.78230 | 140.10110 | 32993 ft | 461 kts | 353° |
| 2026-04-22 07:36 | 37.84607 | 140.11001 | 32972 ft | 461 kts | 353° |
| 2026-04-22 07:36 | 37.90946 | 140.11888 | 32971 ft | 462 kts | 353° |
| 2026-04-22 07:37 | 37.97378 | 140.12784 | 32969 ft | 462 kts | 353° |
| 2026-04-22 07:37 | 38.03736 | 140.13662 | 32962 ft | 463 kts | 353° |
| 2026-04-22 07:38 | 38.10143 | 140.14560 | 32953 ft | 464 kts | 353° |
| 2026-04-22 07:38 | 38.16568 | 140.15469 | 32950 ft | 464 kts | 353° |
| 2026-04-22 07:39 | 38.22997 | 140.16374 | 32952 ft | 465 kts | 353° |
| 2026-04-22 07:39 | 38.29437 | 140.17283 | 32954 ft | 466 kts | 353° |
| 2026-04-22 07:40 | 38.35880 | 140.18191 | 32938 ft | 467 kts | 353° |
| 2026-04-22 07:40 | 38.39127 | 140.18643 | 32611 ft | 468 kts | 353° |
| 2026-04-22 07:40 | 38.42359 | 140.19100 | 31922 ft | 467 kts | 353° |
| 2026-04-22 07:41 | 38.45587 | 140.19562 | 31268 ft | 465 kts | 353° |
| 2026-04-22 07:41 | 38.48798 | 140.20023 | 30626 ft | 464 kts | 353° |
| 2026-04-22 07:41 | 38.52008 | 140.20484 | 29980 ft | 464 kts | 353° |
| 2026-04-22 07:41 | 38.55216 | 140.20941 | 29277 ft | 463 kts | 353° |
| 2026-04-22 07:42 | 38.58409 | 140.21395 | 28662 ft | 459 kts | 353° |
| 2026-04-22 07:42 | 38.61534 | 140.21841 | 28040 ft | 457 kts | 353° |
| 2026-04-22 07:42 | 38.64686 | 140.22290 | 27422 ft | 454 kts | 354° |
| 2026-04-22 07:42 | 38.67819 | 140.22739 | 26807 ft | 451 kts | 354° |
| 2026-04-22 07:43 | 38.70934 | 140.23186 | 26196 ft | 449 kts | 354° |
| 2026-04-22 07:43 | 38.74033 | 140.23630 | 25596 ft | 446 kts | 354° |
| 2026-04-22 07:43 | 38.77105 | 140.24070 | 25020 ft | 443 kts | 354° |
| 2026-04-22 07:43 | 38.80160 | 140.24507 | 24451 ft | 441 kts | 354° |
| 2026-04-22 07:44 | 38.83201 | 140.24939 | 23904 ft | 438 kts | 355° |
| 2026-04-22 07:44 | 38.86220 | 140.25368 | 23329 ft | 435 kts | 355° |
| 2026-04-22 07:44 | 38.89212 | 140.25797 | 22784 ft | 430 kts | 355° |
| 2026-04-22 07:44 | 38.92175 | 140.26225 | 22271 ft | 425 kts | 356° |
| 2026-04-22 07:45 | 38.95095 | 140.26651 | 21765 ft | 420 kts | 356° |
| 2026-04-22 07:45 | 38.97983 | 140.27070 | 21265 ft | 416 kts | 356° |
| 2026-04-22 07:45 | 39.00829 | 140.27239 | 20769 ft | 400 kts | 347° |
| 2026-04-22 07:45 | 39.03552 | 140.26881 | 20285 ft | 390 kts | 344° |
| 2026-04-22 07:46 | 39.06235 | 140.26491 | 19787 ft | 386 kts | 345° |
| 2026-04-22 07:46 | 39.08892 | 140.26118 | 19296 ft | 382 kts | 345° |
| 2026-04-22 07:46 | 39.11530 | 140.25751 | 18797 ft | 380 kts | 346° |
| 2026-04-22 07:46 | 39.14114 | 140.25390 | 18342 ft | 376 kts | 346° |
| 2026-04-22 07:47 | 39.16697 | 140.25035 | 17815 ft | 373 kts | 346° |
| 2026-04-22 07:47 | 39.19268 | 140.24680 | 17316 ft | 369 kts | 346° |
| 2026-04-22 07:47 | 39.21818 | 140.24326 | 16806 ft | 366 kts | 346° |
| 2026-04-22 07:47 | 39.24335 | 140.23975 | 16333 ft | 362 kts | 346° |
| 2026-04-22 07:48 | 39.26858 | 140.23832 | 15850 ft | 367 kts | 356° |
| 2026-04-22 07:48 | 39.29402 | 140.24408 | 15343 ft | 377 kts | 9° |
| 2026-04-22 07:48 | 39.31834 | 140.25768 | 14800 ft | 386 kts | 23° |
| 2026-04-22 07:48 | 39.34152 | 140.27531 | 14261 ft | 386 kts | 24° |
| 2026-04-22 07:49 | 39.36468 | 140.29289 | 13691 ft | 386 kts | 24° |
| 2026-04-22 07:49 | 39.38779 | 140.31047 | 13081 ft | 385 kts | 24° |
| 2026-04-22 07:49 | 39.41091 | 140.32809 | 12280 ft | 389 kts | 24° |
| 2026-04-22 07:49 | 39.43455 | 140.34604 | 11208 ft | 399 kts | 25° |
| 2026-04-22 07:50 | 39.45870 | 140.36436 | 10147 ft | 402 kts | 25° |
| 2026-04-22 07:50 | 39.48248 | 140.38248 | 9050 ft | 393 kts | 25° |
| 2026-04-22 07:50 | 39.50547 | 140.40011 | 8471 ft | 373 kts | 25° |
| 2026-04-22 07:50 | 39.52648 | 140.41845 | 7946 ft | 360 kts | 37° |
| 2026-04-22 07:51 | 39.54238 | 140.44264 | 7448 ft | 351 kts | 57° |
| 2026-04-22 07:51 | 39.55172 | 140.47132 | 6948 ft | 340 kts | 78° |
| 2026-04-22 07:51 | 39.55391 | 140.50102 | 6461 ft | 325 kts | 98° |
| 2026-04-22 07:51 | 39.54973 | 140.52887 | 5920 ft | 304 kts | 116° |
| 2026-04-22 07:52 | 39.54057 | 140.55250 | 5416 ft | 286 kts | 132° |
| 2026-04-22 07:52 | 39.52798 | 140.57116 | 5021 ft | 266 kts | 147° |
| 2026-04-22 07:52 | 39.51350 | 140.58463 | 4608 ft | 248 kts | 161° |
| 2026-04-22 07:52 | 39.49826 | 140.59305 | 4262 ft | 229 kts | 173° |
| 2026-04-22 07:53 | 39.48311 | 140.59691 | 4192 ft | 219 kts | 185° |
| 2026-04-22 07:53 | 39.46825 | 140.59701 | 4189 ft | 213 kts | 195° |
| 2026-04-22 07:53 | 39.45393 | 140.59360 | 4188 ft | 207 kts | 206° |
| 2026-04-22 07:53 | 39.44053 | 140.58696 | 4192 ft | 201 kts | 214° |
| 2026-04-22 07:54 | 39.42824 | 140.57856 | 4192 ft | 197 kts | 219° |
| 2026-04-22 07:54 | 39.41723 | 140.56824 | 4185 ft | 194 kts | 228° |
| 2026-04-22 07:54 | 39.40799 | 140.55612 | 4189 ft | 191 kts | 236° |
| 2026-04-22 07:54 | 39.40040 | 140.54223 | 4194 ft | 188 kts | 244° |
| 2026-04-22 07:55 | 39.39476 | 140.52706 | 4193 ft | 187 kts | 252° |
| 2026-04-22 07:55 | 39.39127 | 140.51097 | 4192 ft | 185 kts | 264° |
| 2026-04-22 07:55 | 39.39309 | 140.49454 | 4194 ft | 190 kts | 290° |
| 2026-04-22 07:55 | 39.40214 | 140.48162 | 4195 ft | 206 kts | 322° |
| 2026-04-22 07:56 | 39.41543 | 140.47341 | 4202 ft | 221 kts | 324° |
| 2026-04-22 07:56 | 39.42996 | 140.46373 | 4194 ft | 245 kts | 324° |
| 2026-04-22 07:56 | 39.44524 | 140.45340 | 4199 ft | 250 kts | 325° |
| 2026-04-22 07:56 | 39.46067 | 140.44306 | 3968 ft | 248 kts | 325° |
| 2026-04-22 07:57 | 39.47614 | 140.43275 | 3912 ft | 251 kts | 326° |
| 2026-04-22 07:57 | 39.49159 | 140.42246 | 3784 ft | 250 kts | 326° |
| 2026-04-22 07:57 | 39.50669 | 140.41247 | 4055 ft | 240 kts | 325° |
| 2026-04-22 07:57 | 39.52207 | 140.40257 | 4166 ft | 251 kts | 327° |
| 2026-04-22 07:58 | 39.53808 | 140.39347 | 3700 ft | 247 kts | 329° |
| 2026-04-22 07:58 | 39.55360 | 140.38530 | 3341 ft | 237 kts | 331° |
| 2026-04-22 07:58 | 39.56866 | 140.37753 | 2998 ft | 227 kts | 331° |
| 2026-04-22 07:58 | 39.58291 | 140.37014 | 2685 ft | 213 kts | 331° |
| 2026-04-22 07:59 | 39.59549 | 140.36179 | 2393 ft | 191 kts | 313° |
| 2026-04-22 07:59 | 39.60280 | 140.34920 | 2175 ft | 163 kts | 289° |
| 2026-04-22 07:59 | 39.60511 | 140.33589 | 1926 ft | 141 kts | 275° |
| 2026-04-22 07:59 | 39.60620 | 140.32361 | 1760 ft | 134 kts | 275° |
| 2026-04-22 08:00 | 39.60724 | 140.31200 | 1573 ft | 130 kts | 274° |
| 2026-04-22 08:00 | 39.60829 | 140.30039 | 1407 ft | 129 kts | 274° |
| 2026-04-22 08:00 | 39.60933 | 140.28890 | 1229 ft | 128 kts | 276° |
| 2026-04-22 08:00 | 39.61036 | 140.27743 | 1052 ft | 128 kts | 276° |
| 2026-04-22 08:01 | 39.61141 | 140.26591 | 859 ft | 129 kts | 277° |
| 2026-04-22 08:01 | 39.61227 | 140.25833 | 696 ft | 129 kts | 276° |
| 2026-04-22 08:01 | 39.61316 | 140.24674 | 574 ft | 127 kts | 271° |
| 2026-04-22 08:01 | 39.61426 | 140.23511 | 391 ft | 132 kts | 276° |
| 2026-04-22 08:02 | 39.61510 | 140.22361 | 322 ft | 116 kts | 277° |
| 2026-04-22 08:02 | 39.61590 | 140.21499 | 312 ft | 71 kts | 278° |
| 2026-04-22 08:02 | 39.61626 | 140.21117 | 313 ft | 23 kts | 274° |
| 2026-04-22 08:02 | 39.61551 | 140.21006 | 315 ft | 18 kts | 188° |
| 2026-04-22 08:03 | 39.61473 | 140.21056 | 311 ft | 10 kts | 97° |
| 2026-04-22 08:03 | 39.61466 | 140.21143 | 312 ft | 10 kts | 97° |
| 2026-04-22 08:03 | 39.61455 | 140.21242 | 311 ft | 16 kts | 98° |
| 2026-04-22 08:03 | 39.61436 | 140.21432 | 309 ft | 22 kts | 97° |
| 2026-04-22 08:04 | 39.61419 | 140.21624 | 310 ft | 21 kts | 97° |
| 2026-04-22 08:04 | 39.61403 | 140.21804 | 311 ft | 19 kts | 97° |
| 2026-04-22 08:04 | 39.61388 | 140.21927 | 311 ft | 3 kts | 123° |
| 2026-04-22 08:04 | 39.61373 | 140.21935 | 312 ft | 6 kts | 172° |
| 2026-04-22 08:05 | 39.61322 | 140.21934 | 314 ft | 7 kts | 182° |
| 2026-04-22 08:05 | 39.61277 | 140.21929 | 314 ft | 6 kts | 186° |
| 2026-04-22 08:05 | 39.61249 | 140.21924 | 315 ft | 1 kts | 187° |
| 2026-04-22 08:05 | 39.61247 | 140.21924 | 314 ft | 0 kts | 187° |